createdAt,value
2018-12-08T00:01:55.391Z,98.81
2018-12-08T00:04:28.075Z,98.79
2018-12-08T00:07:00.917Z,98.87
2018-12-08T00:09:37.305Z,98.78
2018-12-08T00:12:13.387Z,99.37
2018-12-08T00:14:45.787Z,99.04
2018-12-08T00:17:21.959Z,99.48
2018-12-08T00:19:54.904Z,99.53
2018-12-08T00:22:26.948Z,99.51
2018-12-08T00:24:59.153Z,99.63
2018-12-08T00:27:36.426Z,98.80
2018-12-08T00:30:25.183Z,98.55
2018-12-08T00:32:57.276Z,97.24
2018-12-08T00:35:30.290Z,97.98
2018-12-08T00:38:07.281Z,98.29
2018-12-08T00:40:38.352Z,98.29
2018-12-08T00:43:10.556Z,98.21
2018-12-08T00:45:43.555Z,98.30
2018-12-08T00:48:20.465Z,98.63
2018-12-08T00:50:53.361Z,97.77
2018-12-08T00:53:26.260Z,97.09
2018-12-08T00:55:59.199Z,96.94
2018-12-08T00:58:29.485Z,97.26
2018-12-08T01:01:01.698Z,96.60
2018-12-08T01:03:34.501Z,97.82
2018-12-08T01:06:07.512Z,97.83
2018-12-08T01:08:38.057Z,97.97
2018-12-08T01:11:08.096Z,98.17
2018-12-08T01:13:40.813Z,98.78
2018-12-08T01:16:13.454Z,98.44
2018-12-08T01:18:46.317Z,98.24
2018-12-08T01:21:22.396Z,98.11
2018-12-08T01:23:58.575Z,98.35
2018-12-08T01:36:28.699Z,98.63
2018-12-08T01:39:07.156Z,98.50
2018-12-08T01:41:41.002Z,98.72
2018-12-08T01:44:13.344Z,99.22
2018-12-08T01:46:45.399Z,98.97
2018-12-08T01:49:17.674Z,99.33
2018-12-08T01:51:53.942Z,99.14
2018-12-08T01:54:26.204Z,99.21
2018-12-08T01:56:59.147Z,99.36
2018-12-08T01:59:31.482Z,99.29
2018-12-08T02:02:07.577Z,99.10
2018-12-08T02:04:43.535Z,99.34
2018-12-08T02:07:15.775Z,98.72
2018-12-08T02:09:48.050Z,99.32
2018-12-08T02:12:20.470Z,99.50
2018-12-08T02:14:56.744Z,99.67
2018-12-08T02:17:32.795Z,100.00
2018-12-08T02:20:08.853Z,99.86
2018-12-08T02:22:41.137Z,99.81
2018-12-08T02:25:14.063Z,99.92
2018-12-08T02:27:46.177Z,99.89
2018-12-08T02:30:16.414Z,100.00
2018-12-08T02:32:53.583Z,100.00
2018-12-08T02:35:26.559Z,100.00
2018-12-08T02:40:34.697Z,100.00
2018-12-08T02:43:10.726Z,100.00
2018-12-08T02:45:46.815Z,100.00
2018-12-08T02:48:19.000Z,100.00
2018-12-08T02:50:51.872Z,100.00
2018-12-08T02:53:24.108Z,100.00
2018-12-08T02:55:54.146Z,100.00
2018-12-08T02:58:24.468Z,100.00
2018-12-08T03:00:57.415Z,100.00
2018-12-08T03:03:29.798Z,100.00
2018-12-08T03:06:00.768Z,100.00
2018-12-08T03:08:33.077Z,100.00
2018-12-08T03:11:06.048Z,100.00
2018-12-08T03:13:42.288Z,100.00
2018-12-08T03:16:14.451Z,100.00
2018-12-08T03:18:51.003Z,100.00
2018-12-08T03:21:23.781Z,100.00
2018-12-08T03:23:53.897Z,100.00
2018-12-08T03:26:24.857Z,100.00
2018-12-08T03:28:57.100Z,100.00
2018-12-08T03:31:29.801Z,100.00
2018-12-08T03:34:02.182Z,100.00
2018-12-08T03:36:38.262Z,100.00
2018-12-08T03:39:08.841Z,100.00
2018-12-08T03:41:41.700Z,100.00
2018-12-08T03:44:17.677Z,100.00
2018-12-08T03:46:53.870Z,100.00
2018-12-08T03:49:26.654Z,100.00
2018-12-08T03:52:03.005Z,100.00
2018-12-08T03:54:39.849Z,100.00
2018-12-08T03:57:12.753Z,100.00
2018-12-08T03:59:44.312Z,100.00
2018-12-08T04:02:16.926Z,100.00
2018-12-08T04:04:46.944Z,100.00
2018-12-08T04:07:19.225Z,100.00
2018-12-08T04:09:52.158Z,100.00
2018-12-08T04:12:22.329Z,100.00
2018-12-08T04:14:55.329Z,100.00
2018-12-08T04:17:26.268Z,100.00
2018-12-08T04:20:02.503Z,100.00
2018-12-08T04:22:35.479Z,100.00
2018-12-08T04:25:13.695Z,100.00
2018-12-08T04:27:49.697Z,100.00
2018-12-08T04:30:25.701Z,100.00
2018-12-08T04:32:57.991Z,100.00
2018-12-08T04:35:30.944Z,100.00
2018-12-08T04:38:06.976Z,100.00
2018-12-08T04:48:05.670Z,100.00
2018-12-08T04:50:35.624Z,100.00
2018-12-08T04:53:08.307Z,100.00
2018-12-08T04:55:44.483Z,100.00
2018-12-08T04:58:16.603Z,100.00
2018-12-08T05:00:49.535Z,100.00
2018-12-08T05:03:25.859Z,100.00
2018-12-08T05:05:58.103Z,100.00
2018-12-08T05:08:30.567Z,100.00
2018-12-08T05:11:06.650Z,99.81
2018-12-08T05:13:42.896Z,99.59
2018-12-08T05:16:13.271Z,99.46
2018-12-08T05:18:45.401Z,99.84
2018-12-08T05:21:21.563Z,99.70
2018-12-08T05:23:53.984Z,100.00
2018-12-08T05:26:26.131Z,100.00
2018-12-08T05:28:56.613Z,100.00
2018-12-08T05:31:28.774Z,100.00
2018-12-08T05:34:05.262Z,100.00
2018-12-08T05:36:37.296Z,100.00
2018-12-08T05:39:13.430Z,100.00
2018-12-08T05:41:45.631Z,100.00
2018-12-08T05:44:21.741Z,100.00
2018-12-08T05:56:53.482Z,100.00
2018-12-08T05:59:25.700Z,100.00
2018-12-08T06:01:56.712Z,100.00
2018-12-08T06:04:26.985Z,100.00
2018-12-08T06:06:59.115Z,100.00
2018-12-08T06:09:31.721Z,100.00
2018-12-08T06:12:03.906Z,100.00
2018-12-08T06:14:34.857Z,100.00
2018-12-08T06:17:06.980Z,100.00
2018-12-08T06:19:37.372Z,100.00
2018-12-08T06:22:09.414Z,100.00
2018-12-08T06:24:43.427Z,100.00
2018-12-08T06:27:26.097Z,100.00
2018-12-08T06:29:57.857Z,100.00
2018-12-08T06:32:28.683Z,100.00
2018-12-08T06:35:00.902Z,100.00
2018-12-08T06:37:32.956Z,100.00
2018-12-08T06:40:09.324Z,100.00
2018-12-08T06:42:42.238Z,100.00
2018-12-08T06:45:19.332Z,100.00
2018-12-08T06:47:55.448Z,100.00
2018-12-08T06:50:27.794Z,100.00
2018-12-08T06:52:58.693Z,100.00
2018-12-08T06:55:30.773Z,100.00
2018-12-08T06:58:01.665Z,100.00
2018-12-08T07:03:31.364Z,100.00
2018-12-08T07:06:07.590Z,100.00
2018-12-08T07:08:39.640Z,100.00
2018-12-08T07:11:10.950Z,100.00
2018-12-08T07:13:43.243Z,100.00
2018-12-08T07:16:16.172Z,100.00
2018-12-08T07:18:52.315Z,100.00
2018-12-08T07:21:28.634Z,100.00
2018-12-08T07:23:59.979Z,100.00
2018-12-08T07:26:36.120Z,100.00
2018-12-08T07:29:08.458Z,100.00
2018-12-08T07:31:40.571Z,100.00
2018-12-08T07:34:11.563Z,100.00
2018-12-08T07:36:47.827Z,100.00
2018-12-08T07:39:23.900Z,100.00
2018-12-08T07:41:56.912Z,100.00
2018-12-08T07:44:29.863Z,100.00
2018-12-08T07:47:00.080Z,100.00
2018-12-08T07:49:33.019Z,100.00
2018-12-08T07:52:05.334Z,100.00
2018-12-08T07:54:42.424Z,100.00
2018-12-08T07:57:14.503Z,100.00
2018-12-08T07:59:47.402Z,100.00
2018-12-08T08:02:19.762Z,100.00
2018-12-08T08:04:51.881Z,100.00
2018-12-08T08:07:28.221Z,100.00
2018-12-08T08:10:02.341Z,100.00
2018-12-08T08:13:14.904Z,100.00
2018-12-08T08:15:47.118Z,100.00
2018-12-08T08:18:19.191Z,100.00
2018-12-08T08:20:55.437Z,100.00
2018-12-08T08:23:27.657Z,100.00
2018-12-08T08:26:00.031Z,100.00
2018-12-08T08:28:32.192Z,100.00
2018-12-08T08:31:04.607Z,100.00
2018-12-08T08:33:37.455Z,100.00
2018-12-08T08:36:09.761Z,100.00
2018-12-08T08:38:47.673Z,100.00
2018-12-08T08:41:19.687Z,100.00
2018-12-08T08:43:56.308Z,100.00
2018-12-08T08:46:32.996Z,100.00
2018-12-08T08:49:05.860Z,100.00
2018-12-08T08:51:36.800Z,100.00
2018-12-08T08:54:06.831Z,100.00
2018-12-08T08:56:36.897Z,100.00
2018-12-08T08:59:13.099Z,100.00
2018-12-08T09:01:45.361Z,100.00
2018-12-08T09:04:17.509Z,100.00
2018-12-08T09:06:49.724Z,100.00
2018-12-08T09:09:22.597Z,100.00
2018-12-08T09:11:59.554Z,100.00
2018-12-08T09:14:31.767Z,100.00
2018-12-08T09:17:04.242Z,100.00
2018-12-08T09:19:38.218Z,100.00
2018-12-08T09:22:14.271Z,100.00
2018-12-08T09:24:46.442Z,100.00
2018-12-08T09:27:18.984Z,100.00
2018-12-08T09:29:50.984Z,100.00
2018-12-08T09:32:27.134Z,100.00
2018-12-08T09:35:03.147Z,100.00
2018-12-08T09:37:33.385Z,100.00
2018-12-08T09:40:07.370Z,100.00
2018-12-08T09:42:43.425Z,100.00
2018-12-08T09:45:13.592Z,100.00
2018-12-08T09:47:45.756Z,99.46
2018-12-08T09:50:17.852Z,100.00
2018-12-08T09:53:19.919Z,99.72
2018-12-08T09:55:56.049Z,100.00
2018-12-08T09:58:28.587Z,100.00
2018-12-08T10:01:04.893Z,100.00
2018-12-08T10:03:37.145Z,100.00
2018-12-08T10:06:09.363Z,99.95
2018-12-08T10:08:42.278Z,99.95
2018-12-08T10:11:18.424Z,99.89
2018-12-08T10:21:19.032Z,99.75
2018-12-08T10:23:51.231Z,99.38
2018-12-08T10:26:27.407Z,99.77
2018-12-08T10:28:58.349Z,99.98
2018-12-08T10:31:30.570Z,99.89
2018-12-08T10:34:03.681Z,99.67
2018-12-08T10:36:37.284Z,99.50
2018-12-08T10:39:09.736Z,99.71
2018-12-08T10:41:41.901Z,99.59
2018-12-08T10:44:19.038Z,97.16
2018-12-08T10:46:51.346Z,97.08
2018-12-08T10:49:27.471Z,98.06
2018-12-08T10:51:59.708Z,97.94
2018-12-08T10:54:34.217Z,98.20
2018-12-08T10:57:10.904Z,98.46
2018-12-08T10:59:47.662Z,98.32
2018-12-08T11:02:26.198Z,98.50
2018-12-08T11:04:58.980Z,98.64
2018-12-08T11:07:31.108Z,97.67
2018-12-08T11:10:07.463Z,97.62
2018-12-08T11:12:44.313Z,97.44
2018-12-08T11:15:16.528Z,96.52
2018-12-08T11:17:48.648Z,96.53
2018-12-08T11:20:24.702Z,96.94
2018-12-08T11:23:00.896Z,94.71
2018-12-08T11:25:33.207Z,91.48
2018-12-08T11:28:06.083Z,87.85
2018-12-08T11:30:38.227Z,88.63
2018-12-08T11:33:08.706Z,89.37
2018-12-08T11:35:40.855Z,89.41
2018-12-08T11:38:16.997Z,89.93
2018-12-08T11:40:49.111Z,85.61
2018-12-08T11:43:23.468Z,87.01
2018-12-08T11:45:56.488Z,88.97
2018-12-08T11:48:32.948Z,89.66
2018-12-08T11:51:05.536Z,90.10
2018-12-08T11:53:37.681Z,84.12
2018-12-08T11:56:07.860Z,84.83
2018-12-08T11:58:40.187Z,72.34
2018-12-08T12:01:10.496Z,70.75
2018-12-08T12:03:43.453Z,76.92
2018-12-08T12:06:19.885Z,79.10
2018-12-08T12:08:52.738Z,81.57
2018-12-08T12:11:25.657Z,84.13
2018-12-08T12:13:57.657Z,82.36
2018-12-08T12:16:33.993Z,83.81
2018-12-08T12:19:10.815Z,83.25
2018-12-08T12:21:46.896Z,81.78
2018-12-08T12:29:22.087Z,84.07
2018-12-08T12:31:54.424Z,84.47
2018-12-08T12:34:26.688Z,85.72
2018-12-08T12:36:58.790Z,82.80
2018-12-08T12:39:30.854Z,83.69
2018-12-08T12:42:04.469Z,81.94
2018-12-08T12:44:37.233Z,81.09
2018-12-08T12:47:09.584Z,81.16
2018-12-08T12:49:41.661Z,83.96
2018-12-08T12:52:17.886Z,82.93
2018-12-08T12:54:51.121Z,80.50
2018-12-08T12:57:23.900Z,77.35
2018-12-08T12:59:56.993Z,75.23
2018-12-08T13:02:27.092Z,75.62
2018-12-08T13:04:59.179Z,70.59
2018-12-08T13:07:31.417Z,69.04
2018-12-08T13:10:04.813Z,71.15
2018-12-08T13:12:37.681Z,73.77
2018-12-08T13:15:09.893Z,73.55
2018-12-08T13:17:42.852Z,72.65
2018-12-08T13:20:15.717Z,72.78
2018-12-08T13:22:45.975Z,73.43
2018-12-08T13:25:24.572Z,70.59
2018-12-08T13:27:57.285Z,70.52
2018-12-08T13:30:30.167Z,69.90
2018-12-08T13:33:01.136Z,69.38
2018-12-08T13:35:55.939Z,69.07
2018-12-08T13:38:32.515Z,69.58
2018-12-08T13:41:04.803Z,68.73
2018-12-08T13:43:37.099Z,69.25
2018-12-08T13:46:09.383Z,69.12
2018-12-08T13:48:42.524Z,69.54
2018-12-08T13:51:19.517Z,69.87
2018-12-08T13:53:51.652Z,69.99
2018-12-08T13:56:28.139Z,70.27
2018-12-08T13:59:01.039Z,70.70
2018-12-08T14:01:34.015Z,71.06
2018-12-08T14:04:11.472Z,70.36
2018-12-08T14:06:47.707Z,70.74
2018-12-08T14:09:19.757Z,70.63
2018-12-08T14:11:52.200Z,71.97
2018-12-08T14:14:28.484Z,72.55
2018-12-08T14:17:01.360Z,71.60
2018-12-08T14:19:33.594Z,71.03
2018-12-08T14:22:05.737Z,72.37
2018-12-08T14:24:41.833Z,74.67
2018-12-08T14:27:18.236Z,76.08
2018-12-08T14:29:51.482Z,77.83
2018-12-08T14:32:24.563Z,79.13
2018-12-08T14:34:55.502Z,79.78
2018-12-08T14:37:32.786Z,79.81
2018-12-08T14:40:09.872Z,80.03
2018-12-08T14:42:43.243Z,81.04
2018-12-08T14:45:15.983Z,81.21
2018-12-08T14:47:48.155Z,82.25
2018-12-08T14:50:20.400Z,83.08
2018-12-08T14:52:50.498Z,83.54
2018-12-08T14:55:23.257Z,83.16
2018-12-08T14:57:55.676Z,84.26
2018-12-08T15:00:28.640Z,83.50
2018-12-08T15:03:05.527Z,83.33
2018-12-08T15:05:41.746Z,84.26
2018-12-08T15:08:13.864Z,84.96
2018-12-08T15:10:50.160Z,84.97
2018-12-08T15:13:22.354Z,84.53
2018-12-08T15:15:54.732Z,84.99
2018-12-08T15:18:30.891Z,85.05
2018-12-08T15:21:03.135Z,85.66
2018-12-08T15:23:35.553Z,86.04
2018-12-08T15:26:11.766Z,86.54
2018-12-08T15:28:48.064Z,87.88
2018-12-08T15:31:21.188Z,88.31
2018-12-08T15:36:28.119Z,87.93
2018-12-08T15:39:00.317Z,87.88
2018-12-08T15:41:32.571Z,88.17
2018-12-08T15:44:04.725Z,87.92
2018-12-08T15:46:40.786Z,87.27
2018-12-08T15:49:16.887Z,87.27
2018-12-08T15:51:47.687Z,87.02
2018-12-08T15:54:23.925Z,87.41
2018-12-08T15:56:56.868Z,89.06
2018-12-08T15:59:29.283Z,88.87
2018-12-08T16:01:59.367Z,88.79
2018-12-08T16:04:31.564Z,89.44
2018-12-08T16:07:02.548Z,89.47
2018-12-08T16:09:35.436Z,89.71
2018-12-08T16:12:07.969Z,89.48
2018-12-08T16:14:38.112Z,89.01
2018-12-08T16:17:10.519Z,89.11
2018-12-08T16:19:40.685Z,89.36
2018-12-08T16:22:13.016Z,89.10
2018-12-08T16:24:45.355Z,89.00
2018-12-08T16:27:21.409Z,90.33
2018-12-08T16:29:57.697Z,89.79
2018-12-08T16:32:28.324Z,91.82
2018-12-08T16:35:04.691Z,90.52
2018-12-08T16:37:37.366Z,90.78
2018-12-08T16:42:42.127Z,90.90
2018-12-08T16:45:14.359Z,91.41
2018-12-08T16:47:46.585Z,91.23
2018-12-08T16:50:19.466Z,91.38
2018-12-08T16:52:50.280Z,91.74
2018-12-08T16:55:26.489Z,91.64
2018-12-08T16:58:03.461Z,91.41
2018-12-08T17:00:33.523Z,91.92
2018-12-08T17:03:05.793Z,92.20
2018-12-08T17:05:41.960Z,91.85
2018-12-08T17:08:14.039Z,92.39
2018-12-08T17:10:46.167Z,92.18
2018-12-08T17:13:19.487Z,92.79
2018-12-08T17:15:56.548Z,93.29
2018-12-08T17:18:32.811Z,93.04
2018-12-08T17:21:05.486Z,93.45
2018-12-08T17:23:41.865Z,93.82
2018-12-08T17:26:14.088Z,93.49
2018-12-08T17:28:46.981Z,93.01
2018-12-08T17:31:23.232Z,93.17
2018-12-08T17:34:00.175Z,93.62
2018-12-08T17:36:32.363Z,94.39
2018-12-08T17:39:03.723Z,93.98
2018-12-08T17:46:40.023Z,93.98
2018-12-08T17:49:12.538Z,93.95
2018-12-08T17:51:42.863Z,93.85
2018-12-08T17:54:15.758Z,94.51
2018-12-08T17:56:46.040Z,93.93
2018-12-08T17:59:18.011Z,94.15
2018-12-08T18:01:50.492Z,94.04
2018-12-08T18:04:22.912Z,94.36
2018-12-08T18:06:55.923Z,95.05
2018-12-08T18:09:28.372Z,95.80
2018-12-08T18:12:05.733Z,95.09
2018-12-08T18:14:37.879Z,95.62
2018-12-08T18:17:14.242Z,95.54
2018-12-08T18:19:44.993Z,96.48
2018-12-08T18:22:17.142Z,96.10
2018-12-08T18:24:50.097Z,95.44
2018-12-08T18:27:23.103Z,95.59
2018-12-08T18:29:53.194Z,94.48
2018-12-08T18:32:30.731Z,95.21
2018-12-08T18:35:03.266Z,95.16
2018-12-08T18:37:39.538Z,94.61
2018-12-08T18:40:11.549Z,95.47
2018-12-08T18:42:47.910Z,95.39
2018-12-08T18:45:20.923Z,95.09
2018-12-08T18:47:53.965Z,96.44
2018-12-08T18:50:30.131Z,95.35
2018-12-08T18:53:02.657Z,95.45
2018-12-08T18:55:34.894Z,96.10
2018-12-08T18:58:10.986Z,96.33
2018-12-08T19:00:43.421Z,95.92
2018-12-08T19:03:13.626Z,95.50
2018-12-08T19:05:45.814Z,95.55
2018-12-08T19:08:21.859Z,95.80
2018-12-08T19:10:54.104Z,95.59
2018-12-08T19:13:30.548Z,96.87
2018-12-08T19:16:07.008Z,95.87
2018-12-08T19:18:39.145Z,95.37
2018-12-08T19:21:09.376Z,96.69
2018-12-08T19:23:45.527Z,96.22
2018-12-08T19:26:15.648Z,95.98
2018-12-08T19:28:45.693Z,96.70
2018-12-08T19:31:16.707Z,96.50
2018-12-08T19:33:52.820Z,96.51
2018-12-08T19:36:24.919Z,96.27
2018-12-08T19:38:57.954Z,96.74
2018-12-08T19:41:30.904Z,96.51
2018-12-08T19:44:01.271Z,96.86
2018-12-08T19:46:37.358Z,96.87
2018-12-08T19:54:17.495Z,97.13
2018-12-08T19:56:54.601Z,97.82
2018-12-08T19:59:27.597Z,97.70
2018-12-08T20:01:59.929Z,97.65
2018-12-08T20:04:31.945Z,98.19
2018-12-08T20:07:05.052Z,98.02
2018-12-08T20:09:37.981Z,98.30
2018-12-08T20:12:11.013Z,97.62
2018-12-08T20:14:43.245Z,98.79
2018-12-08T20:17:15.743Z,98.14
2018-12-08T20:19:48.556Z,97.64
2018-12-08T20:22:24.696Z,97.92
2018-12-08T20:24:57.180Z,97.44
2018-12-08T20:27:33.279Z,97.44
2018-12-08T20:30:07.418Z,97.75
2018-12-08T20:32:39.631Z,97.87
2018-12-08T20:35:15.965Z,97.25
2018-12-08T20:37:52.892Z,96.90
2018-12-08T20:40:25.138Z,96.99
2018-12-08T20:42:58.155Z,96.80
2018-12-08T20:45:34.292Z,96.82
2018-12-08T20:48:10.353Z,96.76
2018-12-08T20:50:42.344Z,97.02
2018-12-08T20:53:15.105Z,97.27
2018-12-08T21:03:19.182Z,98.39
2018-12-08T21:05:49.370Z,96.93
2018-12-08T21:08:25.949Z,96.93
2018-12-08T21:10:58.008Z,96.40
2018-12-08T21:13:30.027Z,96.24
2018-12-08T21:16:02.971Z,96.30
2018-12-08T21:18:39.988Z,96.72
2018-12-08T21:21:12.348Z,96.05
2018-12-08T21:23:45.369Z,95.59
2018-12-08T21:26:17.480Z,95.40
2018-12-08T21:28:53.761Z,96.31
2018-12-08T21:31:26.680Z,95.85
2018-12-08T21:34:03.715Z,97.05
2018-12-08T21:36:35.920Z,96.97
2018-12-08T21:39:08.849Z,96.87
2018-12-08T21:41:41.036Z,96.29
2018-12-08T21:44:11.401Z,96.63
2018-12-08T21:46:43.671Z,97.15
2018-12-08T21:49:16.550Z,96.46
2018-12-08T21:51:48.742Z,96.66
2018-12-08T21:54:19.028Z,97.53
2018-12-08T21:56:54.982Z,96.77
2018-12-08T21:59:25.323Z,97.37
2018-12-08T22:02:02.728Z,96.83
2018-12-08T22:09:34.755Z,96.83
2018-12-08T22:12:07.018Z,96.86
2018-12-08T22:14:44.737Z,97.07
2018-12-08T22:17:21.130Z,96.65
2018-12-08T22:19:53.249Z,96.96
2018-12-08T22:22:25.846Z,97.12
2018-12-08T22:24:58.155Z,96.74
2018-12-08T22:27:30.275Z,96.96
2018-12-08T22:30:06.716Z,98.14
2018-12-08T22:32:37.627Z,97.58
2018-12-08T22:35:09.627Z,97.06
2018-12-08T22:37:41.990Z,97.78
2018-12-08T22:40:14.087Z,96.77
2018-12-08T22:42:50.337Z,96.60
2018-12-08T22:45:22.476Z,96.80
2018-12-08T22:47:55.010Z,96.46
2018-12-08T22:50:31.081Z,97.97
2018-12-08T22:53:07.300Z,96.57
2018-12-08T22:55:40.662Z,97.21
2018-12-08T22:58:16.768Z,97.06
2018-12-08T23:00:51.039Z,96.39
2018-12-08T23:03:23.986Z,97.42
2018-12-08T23:05:56.918Z,96.61
2018-12-08T23:08:29.001Z,95.95
2018-12-08T23:11:01.915Z,96.80
2018-12-08T23:13:38.963Z,96.45
2018-12-08T23:16:15.239Z,96.28
2018-12-08T23:18:47.481Z,96.34
2018-12-08T23:21:20.397Z,96.43
2018-12-08T23:23:53.294Z,96.30
2018-12-08T23:26:26.100Z,96.44
2018-12-08T23:28:58.999Z,96.63
2018-12-08T23:31:29.092Z,96.29
2018-12-08T23:34:05.320Z,96.41
2018-12-08T23:36:37.368Z,96.59
2018-12-08T23:39:14.607Z,96.37
2018-12-08T23:41:47.587Z,96.15
2018-12-08T23:44:23.845Z,97.49
2018-12-08T23:46:54.002Z,96.75
2018-12-08T23:49:30.304Z,97.02
2018-12-08T23:52:06.493Z,97.56
2018-12-08T23:54:38.564Z,97.16
2018-12-08T23:57:14.649Z,97.46
2018-12-08T23:59:51.835Z,97.40
